Pagrindinis puslapis
METAR-TAF:

METAR-TAF

Oro uostai :

Prescott, Arizona, Jungtinės Amerikos Valstijos

platuma: 34-38-57N, ilguma: 112-25-20W, Aukštis: 1537 m

Dabartinis oras

Ataskaita buvo paskelbta 50 minutes, ne 19:53 UTC
Vėjas 12 kt iš Vakarų
Temperatūra 11°C
Drėgmė 25%
Slėgis 1014 hPa
Matomumas: 16.1 km
Giedras dangus

METAR: KPRC 251953Z 26012KT 10SM CLR 11/M08 A2995 RMK AO2 SLP117 T01111083

Laikas: 13:43 (20:43 UTC)

Prognozė

Ataskaita buvo paskelbta 2 valandos ir 57 minutes, ne 17:46 UTC
Prognozė galioja nuo 25 metu 18 UTC su 26 metu 18 UTC
Vėjas 11 kt iš Vakarų
Matomumas: 10 km
Mažai debesys ne aukštis 15000 ft
Nuo 26 metu 0200 UTC
Vėjas 9 kt iš Vakarų/Šiaurės Vakarų
Matomumas: 10 km
Giedras dangus

TAF: KPRC 251746Z 2518/2618 27011KT P6SM FEW150 FM260200 30009KT P6SM SKC

Orai ataskaitas ir orų prognozės (METAR, TAF).

turimą stotys yra geltonos ir raudonos taškus žemėlapyje.

Perkelti pele per norėdami pamatyti stoties vardą.

Tada spustelėkite, norėdami matyti oro stebėjimo ir prognozės.

Norėdami pakeisti žemėlapį: spustelėkite ant žalios mygtukų su juodo kryžiaus žemyn,; žalią mygtuką su brūkšneliu, jei norite nutolinti; arba žalių rodyklių gretimoms žemėlapius.


METAR-TAF: